CheckWX is a tool to help pilots better visualize weather data.  It is not intended as a substitute for an official pre-flight weather briefing.

08:52:54 UTC

KPUC METAR
Carbon County Regional / Buck Davis Field Airport
Price, Utah, USA
Current

60 mins ago

KPUC 220753Z AUTO 06004KT 10SM OVC014 M04/M05 A2961 RMK AO2 SNB22E40 SLP069 P0000 T10441050
Observed
Feb-22 @ 07:53 UTC
Wind
  • 060° at 4 KTS
Visibility
10 SM
Flight Rules
MVFR
Cloud Levels
  • Overcast at 1,400' AGL
Temperature
-4°C / 25°F
Dewpoint
-5°C / 23°F
Humidity
93%
Altimeter
29.61" Hg
Pressure
1006.9 hPa
Current Rain
0.01"
Previous

2 hours ago

KPUC 220653Z AUTO 00000KT 10SM OVC012 M04/M05 A2959 RMK AO2 SNE0559 SLP066 P0000 T10441050 410281111
Observed
Feb-22 @ 06:53 UTC
Visibility
10 SM
Flight Rules
MVFR
Cloud Levels
  • Overcast at 1,200' AGL
Temperature
-4°C / 25°F
Dewpoint
-5°C / 23°F
Humidity
93%
Altimeter
29.59" Hg
Pressure
1006.6 hPa
Current Rain
0.01"
Previous

3 hours ago

KPUC 220600Z AUTO 04005KT 9SM OVC013 M04/M06 A2958 RMK AO2 SNE0559 P0000 T10391056
Observed
Feb-22 @ 06:00 UTC
Wind
  • 040° at 5 KTS
Visibility
9 SM
Flight Rules
MVFR
Cloud Levels
  • Overcast at 1,300' AGL
Temperature
-4°C / 25°F
Dewpoint
-6°C / 21°F
Humidity
86%
Altimeter
29.58" Hg
Pressure
1001.72 hPa
Current Rain
0.01"